createdAt,value
2023-05-04T00:01:03.178Z,99.90
2023-05-04T00:03:30.889Z,99.90
2023-05-04T00:05:58.363Z,99.90
2023-05-04T00:08:25.866Z,99.90
2023-05-04T00:10:54.387Z,99.90
2023-05-04T00:13:22.174Z,99.90
2023-05-04T00:15:49.571Z,99.90
2023-05-04T00:18:16.975Z,99.90
2023-05-04T00:20:44.372Z,99.90
2023-05-04T00:23:11.741Z,99.90
2023-05-04T00:25:39.214Z,99.90
2023-05-04T00:28:06.712Z,99.90
2023-05-04T00:30:34.236Z,99.90
2023-05-04T00:33:01.978Z,99.90
2023-05-04T00:35:31.728Z,99.90
2023-05-04T00:37:59.164Z,99.90
2023-05-04T00:40:26.604Z,99.90
2023-05-04T00:42:54.034Z,99.90
2023-05-04T00:45:21.597Z,99.90
2023-05-04T00:47:49.717Z,99.90
2023-05-04T00:50:17.271Z,99.90
2023-05-04T00:52:46.878Z,99.90
2023-05-04T00:55:14.535Z,99.90
2023-05-04T00:57:42.174Z,99.90
2023-05-04T01:00:13.206Z,99.90
2023-05-04T01:02:41.702Z,99.90
2023-05-04T01:05:11.044Z,99.90
2023-05-04T01:07:58.759Z,99.90
2023-05-04T01:10:34.530Z,99.90
2023-05-04T01:13:09.601Z,99.90
2023-05-04T01:15:37.197Z,99.90
2023-05-04T01:18:04.725Z,99.90
2023-05-04T01:20:34.547Z,99.90
2023-05-04T01:23:03.643Z,99.90
2023-05-04T01:25:42.992Z,99.90
2023-05-04T01:28:19.783Z,99.90
2023-05-04T01:30:52.238Z,99.90
2023-05-04T01:33:21.086Z,99.90
2023-05-04T01:35:49.348Z,99.90
2023-05-04T01:38:16.753Z,99.90
2023-05-04T01:40:44.074Z,99.90
2023-05-04T01:43:13.083Z,99.90
2023-05-04T01:45:40.486Z,99.90
2023-05-04T01:48:07.982Z,99.90
2023-05-04T01:50:35.815Z,99.90
2023-05-04T01:53:03.274Z,99.90
2023-05-04T01:55:31.530Z,99.90
2023-05-04T01:57:58.990Z,99.90
2023-05-04T02:00:26.816Z,99.90
2023-05-04T02:02:54.392Z,99.90
2023-05-04T02:05:21.940Z,99.90
2023-05-04T02:07:49.514Z,99.90
2023-05-04T02:10:17.105Z,99.90
2023-05-04T02:12:44.583Z,99.90
2023-05-04T02:15:12.240Z,99.90
2023-05-04T02:17:39.719Z,99.90
2023-05-04T02:20:07.873Z,99.90
2023-05-04T02:22:35.969Z,99.90
2023-05-04T02:25:03.496Z,99.90
2023-05-04T02:27:31.079Z,99.90
2023-05-04T02:29:58.912Z,99.90
2023-05-04T02:32:26.866Z,99.90
2023-05-04T02:34:54.459Z,99.90
2023-05-04T02:37:22.215Z,99.90
2023-05-04T02:39:49.554Z,99.90
2023-05-04T02:42:17.548Z,99.90
2023-05-04T02:44:45.261Z,99.90
2023-05-04T02:47:12.762Z,99.90
2023-05-04T02:49:40.191Z,99.90
2023-05-04T02:52:07.945Z,99.90
2023-05-04T02:54:35.380Z,99.90
2023-05-04T02:57:02.988Z,99.90
2023-05-04T02:59:30.430Z,99.90
2023-05-04T03:01:57.817Z,99.90
2023-05-04T03:04:25.321Z,99.90
2023-05-04T03:06:52.766Z,99.90
2023-05-04T03:09:20.607Z,99.90
2023-05-04T03:11:48.052Z,99.90
2023-05-04T03:14:15.510Z,99.90
2023-05-04T03:16:43.438Z,99.90
2023-05-04T03:19:10.949Z,99.90
2023-05-04T03:21:38.383Z,99.90
2023-05-04T03:24:06.148Z,99.90
2023-05-04T03:26:33.753Z,99.90
2023-05-04T03:29:01.569Z,99.90
2023-05-04T03:31:29.612Z,99.90
2023-05-04T03:33:57.307Z,99.90
2023-05-04T03:36:25.491Z,99.90
2023-05-04T03:38:52.958Z,99.90
2023-05-04T03:41:21.203Z,99.90
2023-05-04T03:43:48.672Z,99.90
2023-05-04T03:46:16.118Z,99.90
2023-05-04T03:48:43.550Z,99.90
2023-05-04T03:51:14.610Z,99.90
2023-05-04T03:53:44.566Z,99.90
2023-05-04T03:56:13.379Z,99.90
2023-05-04T03:58:41.224Z,99.90
2023-05-04T04:01:08.787Z,99.90
2023-05-04T04:03:39.147Z,99.90
2023-05-04T04:08:38.001Z,99.90
2023-05-04T04:11:05.519Z,99.90
2023-05-04T04:13:32.933Z,99.90
2023-05-04T04:16:00.458Z,99.90
2023-05-04T04:18:27.895Z,99.90
2023-05-04T04:20:55.550Z,99.90
2023-05-04T04:23:22.960Z,99.90
2023-05-04T04:25:51.220Z,99.90
2023-05-04T04:28:18.577Z,99.90
2023-05-04T04:30:46.303Z,99.90
2023-05-04T04:33:15.069Z,99.90
2023-05-04T04:35:42.502Z,99.90
2023-05-04T04:38:10.261Z,99.90
2023-05-04T04:40:37.718Z,99.90
2023-05-04T04:43:05.596Z,99.90
2023-05-04T04:45:34.040Z,99.90
2023-05-04T04:48:01.880Z,99.90
2023-05-04T04:50:29.672Z,99.90
2023-05-04T04:52:57.134Z,99.90
2023-05-04T04:55:26.094Z,99.90
2023-05-04T04:57:54.311Z,99.90
2023-05-04T05:00:23.078Z,99.90
2023-05-04T05:02:50.615Z,99.90
2023-05-04T05:05:18.151Z,99.90
2023-05-04T05:07:45.705Z,99.90
2023-05-04T05:10:13.272Z,99.90
2023-05-04T05:12:40.838Z,99.90
2023-05-04T05:15:09.383Z,99.90
2023-05-04T05:17:37.634Z,99.90
2023-05-04T05:20:10.614Z,99.90
2023-05-04T05:22:38.803Z,99.90
2023-05-04T05:25:10.050Z,99.90
2023-05-04T05:27:37.776Z,99.90
2023-05-04T05:30:06.302Z,99.90
2023-05-04T05:32:34.198Z,99.90
2023-05-04T05:35:01.742Z,98.70
2023-05-04T05:37:29.160Z,95.30
2023-05-04T05:39:56.860Z,92.80
2023-05-04T05:42:24.487Z,92.40
2023-05-04T06:41:31.608Z,70.40
2023-05-04T06:43:59.966Z,69.90
2023-05-04T06:46:27.388Z,72.80
2023-05-04T06:48:54.847Z,74.30
2023-05-04T06:51:22.271Z,71.90
2023-05-04T06:53:49.674Z,73.10
2023-05-04T06:56:17.127Z,66.90
2023-05-04T06:58:44.532Z,68.80
2023-05-04T07:01:12.354Z,70.50
2023-05-04T07:03:39.802Z,72.10
2023-05-04T07:06:07.710Z,67.40
2023-05-04T07:08:35.127Z,68.70
2023-05-04T07:11:02.685Z,68.20
2023-05-04T07:13:30.066Z,64.80
2023-05-04T07:15:57.513Z,71.60
2023-05-04T07:18:24.999Z,70.60
2023-05-04T07:20:54.272Z,73.10
2023-05-04T07:23:23.489Z,72.40
2023-05-04T07:25:53.534Z,71.30
2023-05-04T07:28:21.074Z,70.10
2023-05-04T07:30:48.506Z,69.80
2023-05-04T07:33:15.904Z,72.50
2023-05-04T07:35:43.307Z,73.30
2023-05-04T07:38:10.899Z,76.00
2023-05-04T07:40:38.356Z,76.10
2023-05-04T07:43:05.833Z,74.70
2023-05-04T07:45:33.296Z,78.00
2023-05-04T07:48:00.730Z,70.40
2023-05-04T07:50:28.891Z,69.80
2023-05-04T07:52:56.338Z,70.40
2023-05-04T07:55:25.165Z,68.60
2023-05-04T07:57:52.537Z,69.70
2023-05-04T08:00:21.487Z,68.50
2023-05-04T08:02:49.685Z,68.00
2023-05-04T08:05:17.450Z,66.10
2023-05-04T08:07:44.838Z,70.50
2023-05-04T08:10:12.278Z,70.70
2023-05-04T08:12:42.838Z,70.30
2023-05-04T08:15:10.702Z,72.20
2023-05-04T08:17:40.550Z,73.80
2023-05-04T08:20:09.534Z,79.80
2023-05-04T08:22:38.743Z,78.60
2023-05-04T08:25:06.968Z,76.70
2023-05-04T08:27:34.649Z,78.90
2023-05-04T08:30:02.241Z,78.70
2023-05-04T08:32:32.538Z,73.80
2023-05-04T08:35:00.703Z,75.00
2023-05-04T08:37:28.037Z,81.00
2023-05-04T08:39:56.096Z,79.40
2023-05-04T08:42:27.992Z,76.80
2023-05-04T08:44:59.228Z,79.20
2023-05-04T08:47:29.056Z,81.10
2023-05-04T08:49:56.842Z,79.90
2023-05-04T08:52:25.477Z,82.70
2023-05-04T08:54:55.816Z,82.50
2023-05-04T08:57:24.278Z,81.70
2023-05-04T08:59:53.687Z,77.80
2023-05-04T09:02:25.137Z,75.50
2023-05-04T09:04:53.468Z,78.70
2023-05-04T09:07:22.147Z,81.90
2023-05-04T09:09:53.010Z,77.70
2023-05-04T09:12:20.799Z,78.10
2023-05-04T09:14:48.158Z,80.40
2023-05-04T09:17:17.812Z,81.80
2023-05-04T09:19:45.419Z,80.10
2023-05-04T09:22:19.374Z,82.80
2023-05-04T09:24:47.000Z,78.40
2023-05-04T09:27:16.109Z,86.50
2023-05-04T09:29:43.716Z,78.00
2023-05-04T09:32:15.226Z,77.60
2023-05-04T09:34:49.579Z,83.90
2023-05-04T09:37:18.445Z,83.60
2023-05-04T09:39:57.981Z,83.50
2023-05-04T09:42:26.827Z,84.50
2023-05-04T09:45:03.350Z,81.00
2023-05-04T09:47:41.670Z,79.20
2023-05-04T09:50:19.093Z,76.30
2023-05-04T09:52:49.407Z,76.80
2023-05-04T09:55:19.488Z,83.70
2023-05-04T09:57:48.543Z,80.80
2023-05-04T10:00:17.904Z,84.20
2023-05-04T10:02:47.318Z,79.40
2023-05-04T10:05:17.431Z,82.00
2023-05-04T10:07:45.363Z,80.80
2023-05-04T10:10:14.408Z,81.70
2023-05-04T10:12:42.846Z,80.40
2023-05-04T10:15:12.369Z,84.90
2023-05-04T10:17:54.932Z,83.80
2023-05-04T10:20:30.456Z,77.30
2023-05-04T10:23:27.302Z,83.50
2023-05-04T10:26:16.331Z,76.50
2023-05-04T10:28:59.586Z,82.00
2023-05-04T10:31:40.554Z,80.40
2023-05-04T10:34:08.444Z,81.30
2023-05-04T10:36:41.729Z,79.50
2023-05-04T10:39:20.402Z,79.60
2023-05-04T10:42:06.506Z,79.90
2023-05-04T10:44:53.615Z,83.30
2023-05-04T10:47:32.852Z,80.30
2023-05-04T10:50:16.012Z,79.00
2023-05-04T10:52:54.205Z,82.80
2023-05-04T10:55:22.357Z,79.10
2023-05-04T10:57:51.788Z,85.60
2023-05-04T11:00:19.899Z,83.50
2023-05-04T11:02:49.104Z,80.30
2023-05-04T11:05:19.569Z,81.30
2023-05-04T11:07:50.856Z,81.00
2023-05-04T11:10:27.451Z,80.90
2023-05-04T11:13:02.702Z,80.60
2023-05-04T11:15:31.859Z,77.20
2023-05-04T11:17:59.322Z,79.00
2023-05-04T11:20:27.523Z,81.00
2023-05-04T11:22:55.064Z,77.70
2023-05-04T11:25:30.246Z,74.70
2023-05-04T11:27:58.746Z,79.70
2023-05-04T11:30:36.021Z,79.50
2023-05-04T11:33:11.725Z,75.00
2023-05-04T11:35:40.137Z,78.60
2023-05-04T11:38:07.697Z,81.50
2023-05-04T11:40:36.315Z,80.00
2023-05-04T11:43:04.370Z,80.70
2023-05-04T11:45:34.348Z,79.70
2023-05-04T11:48:02.314Z,79.00
2023-05-04T11:50:30.121Z,83.10
2023-05-04T11:53:12.277Z,81.70
2023-05-04T11:55:40.435Z,81.00
2023-05-04T11:58:09.835Z,81.10
2023-05-04T12:00:39.861Z,83.30
2023-05-04T12:03:15.801Z,83.80
2023-05-04T12:05:48.175Z,82.70
2023-05-04T12:08:32.356Z,84.90
2023-05-04T12:11:11.202Z,85.80
2023-05-04T12:13:39.209Z,83.00
2023-05-04T12:16:09.725Z,85.20
2023-05-04T12:18:37.244Z,82.40
2023-05-04T12:21:31.416Z,81.20
2023-05-04T12:23:59.190Z,82.10
2023-05-04T12:26:27.209Z,80.60
2023-05-04T12:28:54.577Z,81.00
2023-05-04T12:31:24.408Z,81.70
2023-05-04T12:33:52.842Z,81.40
2023-05-04T12:36:20.282Z,83.10
2023-05-04T12:38:47.594Z,81.60
2023-05-04T12:41:15.140Z,80.80
2023-05-04T12:43:43.087Z,79.70
2023-05-04T12:46:10.713Z,80.30
2023-05-04T12:48:38.209Z,79.50
2023-05-04T12:51:05.699Z,79.30
2023-05-04T12:53:33.227Z,84.50
2023-05-04T12:56:01.797Z,82.00
2023-05-04T12:58:29.473Z,78.20
2023-05-04T13:00:57.961Z,83.70
2023-05-04T13:03:25.596Z,83.20
2023-05-04T13:05:53.512Z,82.50
2023-05-04T13:08:20.981Z,82.20
2023-05-04T13:10:48.424Z,81.80
2023-05-04T13:13:17.875Z,84.50
2023-05-04T13:15:49.472Z,84.40
2023-05-04T13:18:16.864Z,79.10
2023-05-04T13:20:44.336Z,83.00
2023-05-04T13:23:11.936Z,82.30
2023-05-04T13:25:39.304Z,79.30
2023-05-04T13:28:06.776Z,82.90
2023-05-04T13:30:34.208Z,80.80
2023-05-04T13:33:05.541Z,76.80
2023-05-04T13:35:37.781Z,76.70
2023-05-04T13:38:05.120Z,83.00
2023-05-04T13:40:33.044Z,81.00
2023-05-04T13:43:00.511Z,78.00
2023-05-04T13:45:27.940Z,78.80
2023-05-04T13:47:55.504Z,78.90
2023-05-04T13:50:22.993Z,86.60
2023-05-04T13:52:50.341Z,86.30
2023-05-04T13:55:19.828Z,77.60
2023-05-04T13:57:47.232Z,83.90
2023-05-04T14:00:17.284Z,78.30
2023-05-04T14:02:45.579Z,77.80
2023-05-04T14:05:13.931Z,80.50
2023-05-04T14:07:41.340Z,77.40
2023-05-04T14:10:09.179Z,77.10
2023-05-04T14:12:36.590Z,81.90
2023-05-04T14:15:04.580Z,83.00
2023-05-04T14:17:32.646Z,81.40
2023-05-04T14:20:00.153Z,82.30
2023-05-04T14:22:28.311Z,83.20
2023-05-04T14:24:55.857Z,81.30
2023-05-04T14:27:23.975Z,82.90
2023-05-04T14:29:52.450Z,78.10
2023-05-04T14:32:19.902Z,77.30
2023-05-04T14:34:47.618Z,79.80
2023-05-04T14:37:15.050Z,77.40
2023-05-04T14:39:42.499Z,81.70
2023-05-04T14:42:09.904Z,78.80
2023-05-04T14:44:37.358Z,81.70
2023-05-04T14:47:07.406Z,82.40
2023-05-04T14:49:37.531Z,82.90
2023-05-04T14:52:05.346Z,83.00
2023-05-04T14:54:33.105Z,82.20
2023-05-04T14:57:00.456Z,78.90
2023-05-04T14:59:27.831Z,81.30
2023-05-04T15:01:57.130Z,82.90
2023-05-04T15:04:24.634Z,77.90
2023-05-04T15:06:52.935Z,81.60
2023-05-04T15:09:20.603Z,81.40
2023-05-04T15:11:48.641Z,81.40
2023-05-04T15:14:16.341Z,80.30
2023-05-04T15:16:43.722Z,81.00
2023-05-04T15:19:11.191Z,79.50
2023-05-04T15:21:38.617Z,78.00
2023-05-04T15:24:06.174Z,81.30
2023-05-04T15:26:34.669Z,80.90
2023-05-04T15:29:02.108Z,81.30
2023-05-04T15:31:29.565Z,80.10
2023-05-04T15:33:56.948Z,78.30
2023-05-04T15:36:24.788Z,77.10
2023-05-04T15:38:52.393Z,83.20
2023-05-04T15:41:19.822Z,78.60
2023-05-04T15:43:47.272Z,82.10
2023-05-04T15:46:14.799Z,82.00
2023-05-04T15:48:42.395Z,84.60
2023-05-04T15:51:13.884Z,85.10
2023-05-04T15:53:41.290Z,85.00
2023-05-04T15:56:08.898Z,83.70
2023-05-04T15:58:36.330Z,83.80
2023-05-04T16:01:04.064Z,81.40
2023-05-04T16:03:32.271Z,81.10
2023-05-04T16:05:59.896Z,79.30
2023-05-04T16:08:27.624Z,82.20
2023-05-04T16:10:55.858Z,78.70
2023-05-04T16:13:23.662Z,80.60
2023-05-04T16:15:51.950Z,78.60
2023-05-04T16:18:19.815Z,78.60
2023-05-04T16:20:48.204Z,78.10
2023-05-04T16:23:17.518Z,81.20
2023-05-04T16:25:44.920Z,78.80
2023-05-04T16:28:12.641Z,81.70
2023-05-04T16:30:42.484Z,81.60
2023-05-04T16:33:10.129Z,81.90
2023-05-04T16:35:37.728Z,82.10
2023-05-04T16:38:05.154Z,82.60
2023-05-04T16:40:32.843Z,82.80
2023-05-04T16:43:00.432Z,81.50
2023-05-04T16:45:31.706Z,82.30
2023-05-04T16:47:59.480Z,83.60
2023-05-04T16:50:26.914Z,86.20
2023-05-04T16:52:54.426Z,85.10
2023-05-04T16:55:21.926Z,85.10
2023-05-04T16:57:49.836Z,84.90
2023-05-04T17:00:17.813Z,83.80
2023-05-04T17:02:45.509Z,84.30
2023-05-04T17:05:13.024Z,85.00
2023-05-04T17:07:43.139Z,84.50
2023-05-04T17:10:11.221Z,83.60
2023-05-04T17:12:38.987Z,83.70
2023-05-04T17:15:07.029Z,81.40
2023-05-04T17:17:34.504Z,81.60
2023-05-04T17:20:02.538Z,81.60
2023-05-04T17:22:30.186Z,84.80
2023-05-04T17:24:57.596Z,85.80
2023-05-04T17:27:24.957Z,87.80
2023-05-04T17:29:52.388Z,87.20
2023-05-04T17:32:19.940Z,87.80
2023-05-04T17:34:47.421Z,88.30
2023-05-04T17:37:14.806Z,88.70
2023-05-04T17:39:42.170Z,90.10
2023-05-04T17:42:10.777Z,89.20
2023-05-04T17:44:38.181Z,89.90
2023-05-04T17:47:06.261Z,90.00
2023-05-04T17:49:33.786Z,90.30
2023-05-04T17:52:01.476Z,89.90
2023-05-04T17:54:28.916Z,90.30
2023-05-04T17:56:56.342Z,91.20
2023-05-04T17:59:23.696Z,90.80
2023-05-04T18:01:51.177Z,90.60
2023-05-04T18:04:18.546Z,91.60
2023-05-04T18:06:46.030Z,92.60
2023-05-04T18:09:13.474Z,92.50
2023-05-04T18:11:40.882Z,92.50
2023-05-04T18:14:08.320Z,93.50
2023-05-04T18:16:37.764Z,93.40
2023-05-04T18:19:06.532Z,94.80
2023-05-04T18:21:37.309Z,96.10
2023-05-04T18:24:05.103Z,96.70
2023-05-04T18:26:32.751Z,97.60
2023-05-04T18:29:11.186Z,97.30
2023-05-04T18:31:44.997Z,98.20
2023-05-04T18:34:12.552Z,99.40
2023-05-04T18:36:39.891Z,99.30
2023-05-04T18:39:08.303Z,99.90
2023-05-04T18:41:35.783Z,99.90
2023-05-04T18:44:15.684Z,99.90
2023-05-04T18:46:43.184Z,99.90
2023-05-04T18:49:10.635Z,99.90
2023-05-04T18:51:41.562Z,99.90
2023-05-04T18:54:09.185Z,99.90
2023-05-04T18:56:36.755Z,99.90
2023-05-04T18:59:06.083Z,99.90
2023-05-04T19:01:33.555Z,99.90
2023-05-04T19:04:01.186Z,99.90
2023-05-04T19:06:28.639Z,99.90
2023-05-04T19:08:56.106Z,99.90
2023-05-04T19:11:23.517Z,99.90
2023-05-04T19:13:51.228Z,99.90
2023-05-04T19:16:18.665Z,99.90
2023-05-04T19:18:46.214Z,99.90
2023-05-04T19:21:13.585Z,99.90
2023-05-04T19:23:41.150Z,99.90
2023-05-04T19:26:09.285Z,99.90
2023-05-04T19:28:36.957Z,99.90
2023-05-04T19:31:04.439Z,99.90
2023-05-04T19:33:44.605Z,99.90
2023-05-04T19:36:16.285Z,99.90
2023-05-04T19:38:43.899Z,99.90
2023-05-04T19:41:11.399Z,99.90
2023-05-04T19:43:38.843Z,99.90
2023-05-04T19:46:06.627Z,99.90
2023-05-04T19:48:34.034Z,99.90
2023-05-04T19:51:02.112Z,99.90
2023-05-04T19:53:31.124Z,99.90
2023-05-04T19:55:58.767Z,99.90
2023-05-04T19:58:28.116Z,99.90
2023-05-04T20:00:56.032Z,99.90
2023-05-04T20:03:23.701Z,99.90
2023-05-04T20:05:51.913Z,99.90
2023-05-04T20:08:20.337Z,99.90
2023-05-04T20:10:47.773Z,99.90
2023-05-04T20:13:15.237Z,99.90
2023-05-04T20:15:42.734Z,99.90
2023-05-04T20:18:10.148Z,99.90
2023-05-04T20:20:37.576Z,99.90
2023-05-04T20:23:04.947Z,99.90
2023-05-04T20:25:32.447Z,99.50
2023-05-04T20:27:59.911Z,99.10
2023-05-04T20:30:28.673Z,99.90
2023-05-04T20:32:56.199Z,99.90
2023-05-04T20:35:23.659Z,99.90
2023-05-04T20:37:51.047Z,99.80
2023-05-04T20:40:18.571Z,99.70
2023-05-04T20:42:46.001Z,99.40
2023-05-04T20:45:13.493Z,99.50
2023-05-04T20:47:41.033Z,99.70
2023-05-04T20:50:10.294Z,99.90
2023-05-04T20:52:38.565Z,99.90
2023-05-04T20:55:07.485Z,99.90
2023-05-04T20:57:35.516Z,99.90
2023-05-04T21:00:03.706Z,99.90
2023-05-04T21:02:31.216Z,99.90
2023-05-04T21:04:58.679Z,99.90
2023-05-04T21:07:26.280Z,99.90
2023-05-04T21:09:59.860Z,99.90
2023-05-04T21:12:27.205Z,99.90
2023-05-04T21:14:54.608Z,99.90
2023-05-04T21:17:22.044Z,99.90
2023-05-04T21:19:49.417Z,99.90
2023-05-04T21:22:17.702Z,99.90
2023-05-04T21:24:46.612Z,99.90
2023-05-04T21:27:14.114Z,99.90
2023-05-04T21:29:41.694Z,99.90
2023-05-04T21:32:09.234Z,99.90
2023-05-04T21:34:36.671Z,99.90
2023-05-04T21:37:04.314Z,99.90
2023-05-04T21:39:31.812Z,99.90
2023-05-04T21:41:59.159Z,99.90
2023-05-04T21:44:26.492Z,99.90
2023-05-04T21:46:54.035Z,99.90
2023-05-04T21:49:21.663Z,99.90
2023-05-04T21:51:49.219Z,99.90
2023-05-04T21:54:16.624Z,99.90
2023-05-04T21:56:44.142Z,99.90
2023-05-04T21:59:11.539Z,99.90
2023-05-04T22:01:38.916Z,99.90
2023-05-04T22:04:07.303Z,99.90
2023-05-04T22:06:34.851Z,99.90
2023-05-04T22:09:02.669Z,99.90
2023-05-04T22:11:30.299Z,99.90
2023-05-04T22:13:58.087Z,99.90
2023-05-04T22:16:25.790Z,99.90
2023-05-04T22:18:53.324Z,99.90
2023-05-04T22:21:20.775Z,99.90
2023-05-04T22:23:48.198Z,99.90
2023-05-04T22:26:15.765Z,99.90
2023-05-04T22:28:43.164Z,99.90
2023-05-04T22:31:10.692Z,99.70
2023-05-04T22:33:38.171Z,99.60
2023-05-04T22:36:05.639Z,99.60
2023-05-04T22:38:33.067Z,99.70
2023-05-04T22:41:00.624Z,99.90
2023-05-04T22:43:28.187Z,99.90
2023-05-04T22:45:55.690Z,99.90
2023-05-04T22:48:23.097Z,99.90
2023-05-04T22:50:50.882Z,99.90
2023-05-04T22:53:18.301Z,99.90
2023-05-04T22:55:45.627Z,99.90
2023-05-04T22:58:12.958Z,99.90
2023-05-04T23:00:40.501Z,99.90
2023-05-04T23:03:08.219Z,99.90
2023-05-04T23:05:35.693Z,99.90
2023-05-04T23:08:03.854Z,99.90
2023-05-04T23:10:31.292Z,99.90
2023-05-04T23:12:59.180Z,99.90
2023-05-04T23:15:26.661Z,99.90
2023-05-04T23:17:54.231Z,99.90
2023-05-04T23:20:22.175Z,99.90
2023-05-04T23:22:49.533Z,99.90
2023-05-04T23:25:16.852Z,99.90
2023-05-04T23:27:45.017Z,99.90
2023-05-04T23:30:12.578Z,99.90
2023-05-04T23:32:40.097Z,99.90
2023-05-04T23:35:08.084Z,99.90
2023-05-04T23:37:35.896Z,99.90
2023-05-04T23:40:03.605Z,99.90
2023-05-04T23:42:31.180Z,99.90
2023-05-04T23:44:58.559Z,99.90
2023-05-04T23:47:26.032Z,99.90
2023-05-04T23:49:53.605Z,99.90
2023-05-04T23:52:21.018Z,99.90
2023-05-04T23:54:53.450Z,99.90
2023-05-04T23:57:20.965Z,99.90
2023-05-04T23:59:48.330Z,99.90
